Time;durP1;ratioP1;P1;durP2;ratioP2;P2;SDS_P1;SDS_P2;PMS_P1;PMS_P2;Temp;Humidity;BMP_temperature;BMP_pressure;BME280_temperature;BME280_humidity;BME280_pressure;Samples;Min_cycle;Max_cycle;Signal;HPM_P1;HPM_P2
2023/03/31 00:01:10;;;;;;;3.37;1.50;;;14.30;99.90;;;;;;5074741;28;20205;-61
2023/03/31 00:03:42;;;;;;;4.77;1.43;;;14.30;99.90;;;;;;5074752;28;20342;-60
2023/03/31 00:06:10;;;;;;;6.10;1.60;;;14.40;99.90;;;;;;5075177;28;20213;-60
2023/03/31 00:08:39;;;;;;;4.17;1.40;;;14.40;99.90;;;;;;5074436;28;20209;-59
2023/03/31 00:11:07;;;;;;;5.50;1.37;;;14.40;99.90;;;;;;5074470;28;20215;-59
2023/03/31 00:13:34;;;;;;;7.90;1.70;;;14.40;99.90;;;;;;5074142;28;20205;-59
2023/03/31 00:16:05;;;;;;;5.30;1.33;;;14.40;99.90;;;;;;5074796;28;20280;-59
2023/03/31 00:18:32;;;;;;;4.50;1.40;;;14.40;99.90;;;;;;5075356;28;20208;-59
2023/03/31 00:21:08;;;;;;;3.67;1.40;;;14.40;99.90;;;;;;5075624;28;20205;-59
2023/03/31 00:23:35;;;;;;;4.90;1.20;;;14.40;99.90;;;;;;5075535;28;20598;-59
2023/03/31 00:26:02;;;;;;;3.97;1.43;;;14.40;99.90;;;;;;5074866;28;20243;-60
2023/03/31 00:28:28;;;;;;;5.17;1.60;;;14.30;99.90;;;;;;5074417;28;20211;-59
2023/03/31 00:31:01;;;;;;;4.60;2.00;;;14.20;99.90;;;;;;5074407;28;20219;-58
2023/03/31 00:33:29;;;;;;;5.40;1.70;;;14.20;99.90;;;;;;5074208;28;20627;-60
2023/03/31 00:36:00;;;;;;;6.30;1.93;;;14.10;99.90;;;;;;5073916;28;20239;-60
2023/03/31 00:38:28;;;;;;;6.47;1.63;;;14.00;99.90;;;;;;5074269;28;20204;-60
2023/03/31 00:40:54;;;;;;;2.33;1.30;;;14.00;99.90;;;;;;5074291;28;20208;-60
2023/03/31 00:43:30;;;;;;;3.57;1.50;;;14.00;99.90;;;;;;5073995;28;20231;-60
2023/03/31 00:46:07;;;;;;;4.27;1.77;;;14.00;99.90;;;;;;5074151;28;20236;-59
2023/03/31 00:48:37;;;;;;;5.23;1.73;;;14.00;99.90;;;;;;5075196;28;20207;-59
2023/03/31 00:51:07;;;;;;;5.13;1.60;;;14.00;99.90;;;;;;5074261;28;20213;-59
2023/03/31 00:53:36;;;;;;;4.30;1.73;;;14.10;99.90;;;;;;5074135;28;20201;-59
2023/03/31 00:56:09;;;;;;;5.57;1.80;;;14.20;99.90;;;;;;5074463;28;20209;-59
2023/03/31 00:58:42;;;;;;;4.30;2.00;;;14.10;99.90;;;;;;5074251;28;20304;-59
2023/03/31 01:01:13;;;;;;;3.37;1.40;;;14.00;99.90;;;;;;5074139;28;20601;-59
2023/03/31 01:03:44;;;;;;;2.10;1.30;;;14.00;99.90;;;;;;5073750;28;20739;-59
2023/03/31 01:06:11;;;;;;;7.03;1.83;;;14.00;99.90;;;;;;5074824;28;20213;-60
2023/03/31 01:08:39;;;;;;;4.80;1.53;;;14.00;99.90;;;;;;5074328;28;20222;-59
2023/03/31 01:11:09;;;;;;;5.27;1.60;;;13.80;99.90;;;;;;5073993;28;20204;-59
2023/03/31 01:13:39;;;;;;;4.57;1.53;;;13.80;99.90;;;;;;5073501;28;20561;-59
2023/03/31 01:16:06;;;;;;;5.60;1.77;;;13.80;99.90;;;;;;5075047;28;20201;-60
2023/03/31 01:18:34;;;;;;;5.57;1.77;;;13.90;99.90;;;;;;5073181;28;20212;-59
2023/03/31 01:21:41;;;;;;;4.87;1.63;;;13.90;99.90;;;;;;5072857;28;20205;-60
2023/03/31 01:26:56;;;;;;;4.67;1.80;;;13.90;99.90;;;;;;5019206;22;20235;-69
2023/03/31 01:29:58;;;;;;;6.50;2.10;;;13.90;99.90;;;;;;5009592;28;20218;-68
2023/03/31 01:32:59;;;;;;;3.23;1.40;;;13.90;99.90;;;;;;5009107;28;20214;-69
2023/03/31 01:35:54;;;;;;;8.93;1.93;;;14.00;99.90;;;;;;5027382;28;20269;-69
2023/03/31 01:38:45;;;;;;;6.40;1.63;;;14.10;99.90;;;;;;5028844;28;20214;-69
2023/03/31 01:41:36;;;;;;;6.80;2.07;;;14.10;99.90;;;;;;5028780;28;20227;-69
2023/03/31 01:44:09;;;;;;;6.27;1.70;;;14.10;99.90;;;;;;5028600;28;20231;-69
2023/03/31 01:46:40;;;;;;;3.70;1.63;;;14.00;99.90;;;;;;5028855;28;20239;-69
2023/03/31 01:49:18;;;;;;;5.37;1.77;;;14.10;99.90;;;;;;5028788;28;20207;-69
2023/03/31 01:51:52;;;;;;;6.33;1.57;;;14.20;99.90;;;;;;5028785;28;20225;-69
2023/03/31 01:54:24;;;;;;;5.27;1.77;;;14.30;99.90;;;;;;5028547;28;20209;-69
2023/03/31 01:56:58;;;;;;;6.70;2.10;;;14.30;99.90;;;;;;5029049;28;20202;-69
2023/03/31 01:59:29;;;;;;;3.87;1.50;;;14.30;99.90;;;;;;5028665;28;20206;-69
2023/03/31 02:01:59;;;;;;;4.63;1.77;;;14.50;99.90;;;;;;5028622;28;20218;-69
2023/03/31 02:04:31;;;;;;;7.53;1.87;;;14.60;99.90;;;;;;5028341;28;20245;-69
2023/03/31 02:07:02;;;;;;;6.27;1.80;;;14.50;99.90;;;;;;5028608;28;20212;-69
2023/03/31 02:09:34;;;;;;;5.63;1.83;;;14.50;99.90;;;;;;5028410;28;20698;-69
2023/03/31 02:12:05;;;;;;;5.47;2.10;;;14.50;99.90;;;;;;5030552;28;20206;-69
2023/03/31 02:14:34;;;;;;;6.57;1.93;;;14.50;99.90;;;;;;5032040;28;20650;-69
2023/03/31 02:17:03;;;;;;;4.53;2.10;;;14.50;99.90;;;;;;5031662;28;20665;-70
2023/03/31 02:19:33;;;;;;;5.50;1.90;;;14.50;99.90;;;;;;5031893;28;20680;-69
2023/03/31 02:22:02;;;;;;;5.73;1.77;;;14.40;99.90;;;;;;5031823;28;20267;-69
2023/03/31 02:24:31;;;;;;;5.50;1.80;;;14.40;99.90;;;;;;5031281;28;20226;-68
2023/03/31 02:27:06;;;;;;;3.70;1.40;;;14.40;99.90;;;;;;5031720;28;20236;-69
2023/03/31 02:29:34;;;;;;;6.23;1.60;;;14.40;99.90;;;;;;5031937;28;20273;-69
2023/03/31 02:32:05;;;;;;;3.47;1.30;;;14.40;99.90;;;;;;5031782;28;20202;-69
2023/03/31 02:34:31;;;;;;;5.77;1.40;;;14.40;99.90;;;;;;5031627;28;20252;-68
2023/03/31 02:36:58;;;;;;;5.53;1.50;;;14.40;99.90;;;;;;5031739;28;20207;-68
2023/03/31 02:39:29;;;;;;;5.67;1.90;;;14.40;99.90;;;;;;5031872;28;20206;-68
2023/03/31 02:41:57;;;;;;;4.40;1.47;;;14.40;99.90;;;;;;5031799;28;20210;-68
2023/03/31 02:44:26;;;;;;;3.83;1.57;;;14.40;99.90;;;;;;5031386;28;20238;-68
2023/03/31 02:46:54;;;;;;;4.87;1.50;;;14.40;99.90;;;;;;5031577;28;20210;-68
2023/03/31 02:49:22;;;;;;;3.77;1.17;;;14.40;99.90;;;;;;5031504;28;20230;-69
2023/03/31 02:52:18;;;;;;;5.77;1.60;;;14.30;99.90;;;;;;5031181;28;20602;-69
2023/03/31 02:55:10;;;;;;;4.57;1.63;;;14.40;99.90;;;;;;5031519;28;20230;-69
2023/03/31 02:57:52;;;;;;;7.67;1.80;;;14.50;99.90;;;;;;5031505;28;20218;-69
2023/03/31 03:00:29;;;;;;;8.73;1.90;;;14.40;99.90;;;;;;5031313;28;20217;-69
2023/03/31 03:03:11;;;;;;;8.03;2.03;;;14.50;99.90;;;;;;5031120;28;20606;-69
2023/03/31 03:05:48;;;;;;;5.43;1.90;;;14.40;99.90;;;;;;5031267;28;20603;-68
2023/03/31 03:08:25;;;;;;;6.33;2.10;;;14.40;99.90;;;;;;5031135;28;20237;-69
2023/03/31 03:11:02;;;;;;;3.00;1.70;;;14.40;99.90;;;;;;5031133;28;20287;-69
2023/03/31 03:13:35;;;;;;;5.43;2.07;;;14.40;99.90;;;;;;5030921;28;20205;-69
2023/03/31 03:16:07;;;;;;;5.03;1.87;;;14.30;99.90;;;;;;5031175;28;20237;-69
2023/03/31 03:18:34;;;;;;;4.23;1.80;;;14.20;99.90;;;;;;5031367;28;20240;-69
2023/03/31 03:21:00;;;;;;;4.07;1.80;;;14.20;99.90;;;;;;5030934;28;20210;-68
2023/03/31 03:23:27;;;;;;;5.20;1.93;;;14.10;99.90;;;;;;5030013;28;20259;-68
2023/03/31 03:25:54;;;;;;;6.40;1.93;;;14.10;99.90;;;;;;5030890;28;20264;-68
2023/03/31 03:28:21;;;;;;;4.93;2.03;;;14.10;99.90;;;;;;5031155;28;20305;-69
2023/03/31 03:30:48;;;;;;;3.80;1.90;;;14.10;99.90;;;;;;5030818;28;20217;-69
2023/03/31 03:33:16;;;;;;;7.13;2.40;;;14.10;99.90;;;;;;5030694;28;20202;-68
2023/03/31 03:35:43;;;;;;;7.43;2.23;;;14.10;99.90;;;;;;5030461;28;20261;-68
2023/03/31 03:38:10;;;;;;;6.67;3.30;;;14.10;99.90;;;;;;5030849;28;20263;-68
2023/03/31 03:40:36;;;;;;;4.13;1.90;;;14.10;99.90;;;;;;5030575;28;20717;-70
2023/03/31 03:43:03;;;;;;;9.60;3.77;;;14.10;99.90;;;;;;5030590;28;20700;-70
2023/03/31 03:45:30;;;;;;;7.90;3.57;;;14.10;99.90;;;;;;5030646;28;20256;-69
2023/03/31 03:47:57;;;;;;;6.43;3.23;;;14.00;99.90;;;;;;5030790;28;20207;-69
2023/03/31 03:50:25;;;;;;;5.80;2.73;;;13.90;99.90;;;;;;5030483;28;20689;-68
2023/03/31 03:52:51;;;;;;;6.23;2.70;;;13.90;99.90;;;;;;5030578;28;20210;-69
2023/03/31 03:55:18;;;;;;;6.37;3.90;;;13.90;99.90;;;;;;5030333;28;20233;-69
2023/03/31 03:57:45;;;;;;;4.77;2.17;;;13.90;99.90;;;;;;5030459;28;20626;-69
2023/03/31 04:00:12;;;;;;;6.33;2.03;;;13.90;99.90;;;;;;5030363;28;20206;-69
2023/03/31 04:02:39;;;;;;;4.93;2.00;;;14.00;99.90;;;;;;5030106;28;20217;-68
2023/03/31 04:05:06;;;;;;;6.07;3.23;;;13.90;99.90;;;;;;5030341;28;20230;-69
2023/03/31 04:07:34;;;;;;;4.83;2.10;;;13.90;99.90;;;;;;5030269;28;20681;-69
2023/03/31 04:10:01;;;;;;;5.57;2.30;;;14.00;99.90;;;;;;5030123;28;20611;-69
2023/03/31 04:12:28;;;;;;;6.70;4.70;;;14.00;99.90;;;;;;5030083;28;20202;-70
2023/03/31 04:14:55;;;;;;;5.83;2.50;;;13.90;99.90;;;;;;5030031;28;20223;-70
2023/03/31 04:17:31;;;;;;;4.63;2.17;;;13.80;99.90;;;;;;5029844;28;20202;-69
2023/03/31 04:20:00;;;;;;;6.27;3.27;;;13.80;99.90;;;;;;5030177;28;20262;-70
2023/03/31 04:22:28;;;;;;;8.97;3.63;;;13.70;99.90;;;;;;5029709;28;20211;-70
2023/03/31 04:24:57;;;;;;;5.37;2.27;;;13.60;99.90;;;;;;5030021;28;20253;-69
2023/03/31 04:27:25;;;;;;;7.53;2.87;;;13.50;99.90;;;;;;5030155;28;20214;-69
2023/03/31 04:29:53;;;;;;;5.63;2.47;;;13.30;99.90;;;;;;5029877;28;20230;-69
2023/03/31 04:32:20;;;;;;;4.87;2.60;;;13.10;99.90;;;;;;5030555;28;20685;-68
2023/03/31 04:34:49;;;;;;;5.73;3.40;;;13.00;99.90;;;;;;5028734;28;20261;-68
2023/03/31 04:37:16;;;;;;;8.53;2.70;;;12.90;99.90;;;;;;5029942;28;20305;-68
2023/03/31 04:39:45;;;;;;;10.37;3.00;;;12.90;99.90;;;;;;5029749;28;20209;-68
2023/03/31 04:42:13;;;;;;;5.77;2.97;;;12.90;99.90;;;;;;5029988;28;20212;-68
2023/03/31 04:44:40;;;;;;;6.87;2.40;;;13.00;99.90;;;;;;5029828;28;20280;-68
2023/03/31 04:47:07;;;;;;;6.13;2.67;;;13.00;99.90;;;;;;5029466;28;20206;-68
2023/03/31 04:49:34;;;;;;;8.87;3.13;;;13.00;99.90;;;;;;5029507;28;20206;-69
2023/03/31 04:52:01;;;;;;;5.07;2.40;;;13.00;99.90;;;;;;5029532;28;20227;-69
2023/03/31 04:54:28;;;;;;;6.77;2.50;;;13.10;99.90;;;;;;5029257;28;20241;-69
2023/03/31 04:56:55;;;;;;;7.20;2.60;;;13.20;99.90;;;;;;5029201;28;20217;-69
2023/03/31 04:59:23;;;;;;;5.33;2.60;;;13.30;99.90;;;;;;5029543;28;20210;-69
2023/03/31 05:01:50;;;;;;;5.93;2.40;;;13.30;99.90;;;;;;5029546;28;20628;-69
2023/03/31 05:04:16;;;;;;;4.67;2.47;;;13.40;99.90;;;;;;5029056;28;20234;-69
2023/03/31 05:06:43;;;;;;;4.77;3.03;;;13.40;99.90;;;;;;5029256;28;20210;-69
2023/03/31 05:09:10;;;;;;;7.37;2.70;;;13.50;99.90;;;;;;5029214;28;20195;-69
2023/03/31 05:11:37;;;;;;;7.00;2.53;;;13.50;99.90;;;;;;5029365;28;20202;-69
2023/03/31 05:14:03;;;;;;;7.13;2.63;;;13.60;99.90;;;;;;5029117;28;20266;-69
2023/03/31 05:16:31;;;;;;;5.13;2.33;;;13.60;99.90;;;;;;5029419;28;20226;-69
2023/03/31 05:18:58;;;;;;;5.23;2.70;;;13.60;99.90;;;;;;5029837;28;20229;-69
2023/03/31 05:21:25;;;;;;;5.93;2.57;;;13.70;99.90;;;;;;5029466;28;20506;-69
2023/03/31 05:23:53;;;;;;;7.80;2.50;;;13.80;99.90;;;;;;5028989;28;20317;-69
2023/03/31 05:26:21;;;;;;;7.47;2.70;;;13.90;99.90;;;;;;5029211;28;20287;-70
2023/03/31 05:28:48;;;;;;;5.97;2.80;;;13.90;99.90;;;;;;5029479;28;20779;-69
2023/03/31 05:31:15;;;;;;;5.70;2.60;;;14.00;99.90;;;;;;5029512;28;20672;-69
2023/03/31 05:33:43;;;;;;;6.73;2.43;;;13.90;99.90;;;;;;5028915;28;20622;-70
2023/03/31 05:36:12;;;;;;;5.93;2.93;;;13.90;99.90;;;;;;5029180;28;20230;-69
2023/03/31 05:38:39;;;;;;;9.23;4.00;;;13.90;99.90;;;;;;5029536;28;20207;-70
2023/03/31 05:41:07;;;;;;;4.40;3.07;;;13.90;99.90;;;;;;5029476;28;20724;-70
2023/03/31 05:43:33;;;;;;;8.10;2.93;;;14.10;99.90;;;;;;5030610;28;20578;-70
2023/03/31 05:46:00;;;;;;;5.50;3.20;;;14.10;99.90;;;;;;5034905;28;20230;-71
2023/03/31 05:48:27;;;;;;;13.60;4.77;;;14.20;99.90;;;;;;5035604;28;20202;-70
2023/03/31 05:50:58;;;;;;;8.73;3.27;;;14.20;99.90;;;;;;5032612;28;20210;-70
2023/03/31 05:53:25;;;;;;;8.33;2.80;;;14.00;99.90;;;;;;5032846;28;20267;-70
2023/03/31 05:55:57;;;;;;;5.13;2.83;;;14.00;99.90;;;;;;5032424;28;20226;-70
2023/03/31 05:58:24;;;;;;;7.37;3.20;;;13.90;99.90;;;;;;5032135;28;20674;-70
2023/03/31 06:00:52;;;;;;;7.40;3.00;;;13.80;99.90;;;;;;5032172;28;20202;-70
2023/03/31 06:03:19;;;;;;;6.83;3.00;;;13.70;99.90;;;;;;5032055;28;20210;-70
2023/03/31 06:05:48;;;;;;;7.83;2.90;;;13.70;99.90;;;;;;5031893;28;20240;-63
2023/03/31 06:08:16;;;;;;;4.37;2.43;;;13.60;99.90;;;;;;5032332;28;20206;-61
2023/03/31 06:10:42;;;;;;;6.33;3.03;;;13.50;99.90;;;;;;5032088;28;20673;-62
2023/03/31 06:13:09;;;;;;;6.13;2.70;;;13.60;99.90;;;;;;5031826;28;20206;-62
2023/03/31 06:15:36;;;;;;;24.47;12.73;;;13.60;99.90;;;;;;5031939;28;20321;-62
2023/03/31 06:18:02;;;;;;;5.53;3.07;;;13.60;99.90;;;;;;5031834;28;20207;-62
2023/03/31 06:20:29;;;;;;;7.37;3.27;;;13.60;99.90;;;;;;5031653;28;20208;-62
2023/03/31 06:22:56;;;;;;;6.77;3.40;;;13.60;99.90;;;;;;5031646;28;20210;-62
2023/03/31 06:25:24;;;;;;;8.70;3.53;;;13.60;99.90;;;;;;5031339;28;20458;-64
2023/03/31 06:27:50;;;;;;;20.40;15.37;;;13.60;99.90;;;;;;5026981;28;20587;-68
2023/03/31 06:30:17;;;;;;;16.33;7.70;;;13.60;99.90;;;;;;5030601;28;20199;-66
2023/03/31 06:32:44;;;;;;;15.27;6.70;;;13.60;99.90;;;;;;5030392;28;20214;-65
2023/03/31 06:35:11;;;;;;;6.87;3.47;;;13.70;99.90;;;;;;5030929;28;20253;-65
2023/03/31 06:37:37;;;;;;;8.83;3.03;;;13.70;99.90;;;;;;5030642;28;20206;-64
2023/03/31 06:40:05;;;;;;;7.27;2.87;;;13.70;99.90;;;;;;5030615;28;20259;-61
2023/03/31 06:42:33;;;;;;;8.97;3.40;;;13.70;99.90;;;;;;5030705;28;20210;-64
2023/03/31 06:45:00;;;;;;;7.87;2.93;;;13.60;99.90;;;;;;5030177;28;20614;-64
2023/03/31 06:47:27;;;;;;;6.90;3.23;;;13.60;99.90;;;;;;5030038;28;20214;-64
2023/03/31 06:49:53;;;;;;;7.33;2.97;;;13.60;99.90;;;;;;5030546;28;20217;-63
2023/03/31 06:52:20;;;;;;;5.60;2.93;;;13.60;99.90;;;;;;5030826;28;20665;-66
2023/03/31 06:54:47;;;;;;;6.33;3.00;;;13.50;99.90;;;;;;5030892;28;20230;-66
2023/03/31 06:57:13;;;;;;;10.63;3.57;;;13.50;99.90;;;;;;5030346;28;20243;-67
2023/03/31 06:59:41;;;;;;;6.93;3.20;;;13.40;99.90;;;;;;5031110;28;20673;-66
2023/03/31 07:02:10;;;;;;;11.67;8.87;;;13.40;99.90;;;;;;5031022;28;20217;-66
2023/03/31 07:04:36;;;;;;;4.50;3.33;;;13.50;99.90;;;;;;5030816;28;20322;-66
2023/03/31 07:07:03;;;;;;;6.73;3.47;;;13.40;99.90;;;;;;5031447;28;20593;-65
2023/03/31 07:09:30;;;;;;;6.40;3.60;;;13.40;99.90;;;;;;5031038;28;20677;-67
2023/03/31 07:11:56;;;;;;;5.30;3.20;;;13.40;99.90;;;;;;5031174;28;20323;-65
2023/03/31 07:14:24;;;;;;;8.43;2.97;;;13.30;99.90;;;;;;5030890;28;20202;-66
2023/03/31 07:16:52;;;;;;;18.30;9.90;;;13.30;99.90;;;;;;5031306;28;20210;-67
2023/03/31 07:19:19;;;;;;;7.97;3.77;;;13.30;99.90;;;;;;5031348;28;20203;-66
2023/03/31 07:21:45;;;;;;;7.37;3.43;;;13.20;99.90;;;;;;5031129;28;20690;-66
2023/03/31 07:24:12;;;;;;;7.03;3.40;;;13.10;99.90;;;;;;5030830;28;20606;-66
2023/03/31 07:26:39;;;;;;;6.83;3.20;;;13.00;99.90;;;;;;5110157;23;20228;-60
2023/03/31 07:29:06;;;;;;;5.43;2.83;;;12.90;99.90;;;;;;5095148;28;20211;-59
2023/03/31 07:31:33;;;;;;;5.53;2.80;;;12.90;99.90;;;;;;5095172;28;20215;-59
2023/03/31 07:34:02;;;;;;;6.37;2.97;;;12.90;99.90;;;;;;5095156;28;20213;-59
2023/03/31 07:36:29;;;;;;;5.43;2.40;;;13.00;99.90;;;;;;5095180;28;20599;-59
2023/03/31 07:38:57;;;;;;;7.20;2.77;;;13.00;99.90;;;;;;5095110;28;20553;-59
2023/03/31 07:41:25;;;;;;;4.90;2.27;;;13.10;99.90;;;;;;5095129;28;20208;-60
2023/03/31 07:43:52;;;;;;;21.93;10.93;;;13.20;99.90;;;;;;5094487;28;20208;-59
2023/03/31 07:46:21;;;;;;;3.83;2.13;;;13.20;99.90;;;;;;5094455;28;20232;-59
2023/03/31 07:48:49;;;;;;;5.00;2.40;;;13.20;99.90;;;;;;5095063;28;20208;-60
2023/03/31 07:51:19;;;;;;;6.03;2.40;;;13.30;99.90;;;;;;5095230;28;20239;-59
2023/03/31 07:53:48;;;;;;;3.53;2.13;;;13.60;99.90;;;;;;5095073;28;20208;-59
2023/03/31 07:56:15;;;;;;;5.13;2.40;;;14.90;99.90;;;;;;5095259;28;20220;-60
2023/03/31 07:58:42;;;;;;;2.58;1.52;;;16.10;99.90;;;;;;5095062;28;20261;-59
2023/03/31 08:01:11;;;;;;;2.13;1.50;;;17.10;99.90;;;;;;5092571;28;20242;-59
2023/03/31 08:03:37;;;;;;;3.40;1.65;;;17.80;99.90;;;;;;5092877;28;20200;-60
2023/03/31 08:06:04;;;;;;;2.10;1.33;;;18.20;99.90;;;;;;5093234;28;20232;-59
2023/03/31 08:08:32;;;;;;;3.28;1.30;;;18.10;99.90;;;;;;5094082;28;20758;-59
2023/03/31 08:10:59;;;;;;;2.33;1.45;;;17.80;99.90;;;;;;5093507;28;20305;-59
2023/03/31 08:13:26;;;;;;;5.57;1.05;;;17.40;99.90;;;;;;5092703;28;20207;-59
2023/03/31 08:15:53;;;;;;;2.58;1.50;;;17.00;99.90;;;;;;5093410;28;20224;-59
2023/03/31 08:18:19;;;;;;;2.10;1.23;;;16.50;99.90;;;;;;5093277;28;20723;-59
2023/03/31 08:20:48;;;;;;;3.10;1.45;;;16.10;99.90;;;;;;5093351;28;20204;-58
2023/03/31 08:23:15;;;;;;;2.47;1.50;;;15.90;99.90;;;;;;5092936;28;20208;-58
2023/03/31 08:25:44;;;;;;;2.17;1.10;;;15.90;99.90;;;;;;5092624;28;20224;-58
2023/03/31 08:28:12;;;;;;;1.75;0.90;;;15.70;99.90;;;;;;5093140;28;20241;-58
2023/03/31 08:30:39;;;;;;;1.17;0.80;;;15.60;99.90;;;;;;5093389;28;20210;-59
2023/03/31 08:33:07;;;;;;;3.13;1.17;;;15.60;99.90;;;;;;5093200;28;20204;-58
2023/03/31 08:35:34;;;;;;;3.30;1.20;;;15.70;99.90;;;;;;5093505;28;20220;-60
2023/03/31 08:38:01;;;;;;;2.10;1.50;;;15.70;99.90;;;;;;5093202;28;20212;-59
2023/03/31 08:40:29;;;;;;;1.67;1.07;;;15.70;99.90;;;;;;5092982;28;20299;-59
2023/03/31 08:43:02;;;;;;;1.17;0.73;;;15.80;99.90;;;;;;5092470;28;20624;-60
2023/03/31 08:45:33;;;;;;;0.87;0.70;;;15.70;99.90;;;;;;5092795;28;20228;-58
2023/03/31 08:48:06;;;;;;;1.63;1.07;;;15.60;99.90;;;;;;5092593;28;20433;-59
2023/03/31 08:50:36;;;;;;;3.80;1.00;;;15.50;99.90;;;;;;5091982;28;20663;-59
2023/03/31 08:53:06;;;;;;;6.47;1.37;;;15.60;99.90;;;;;;5092517;28;20200;-59
2023/03/31 08:55:42;;;;;;;2.67;1.20;;;15.60;99.90;;;;;;5092578;28;20228;-59
2023/03/31 08:58:21;;;;;;;3.13;1.02;;;15.50;99.90;;;;;;5092853;28;20615;-59
2023/03/31 09:00:54;;;;;;;5.93;1.33;;;15.50;99.90;;;;;;5092499;28;20575;-61
2023/03/31 09:03:26;;;;;;;3.33;1.30;;;15.50;99.90;;;;;;5092705;28;20539;-59
2023/03/31 09:06:00;;;;;;;3.37;1.20;;;15.50;99.90;;;;;;5092807;28;20235;-59
2023/03/31 09:08:35;;;;;;;4.07;1.20;;;15.50;99.90;;;;;;5092746;28;20204;-59
2023/03/31 09:11:14;;;;;;;2.07;1.13;;;15.70;99.90;;;;;;5092932;28;20663;-59
2023/03/31 09:14:09;;;;;;;2.78;1.02;;;15.70;99.90;;;;;;5091760;28;20200;-59
2023/03/31 09:16:41;;;;;;;1.63;0.93;;;15.90;99.90;;;;;;5092623;28;20231;-59
2023/03/31 09:19:15;;;;;;;3.17;1.27;;;16.30;99.90;;;;;;5092884;28;20265;-59
2023/03/31 09:21:44;;;;;;;3.25;1.40;;;16.90;99.90;;;;;;5093046;28;20658;-61
2023/03/31 09:24:16;;;;;;;4.85;1.42;;;17.50;99.90;;;;;;5092035;28;20288;-59
2023/03/31 09:26:45;;;;;;;4.43;1.27;;;17.90;99.90;;;;;;5091707;28;20224;-59
2023/03/31 09:29:19;;;;;;;2.42;1.00;;;18.20;99.90;;;;;;5092662;28;20204;-59
2023/03/31 09:31:46;;;;;;;3.95;1.40;;;18.50;99.90;;;;;;5092289;28;20299;-59
2023/03/31 09:34:17;;;;;;;4.45;1.65;;;18.70;99.90;;;;;;5091904;28;20693;-59
2023/03/31 09:36:44;;;;;;;2.75;1.20;;;18.70;99.90;;;;;;5092684;28;20255;-61
2023/03/31 09:39:15;;;;;;;2.63;1.10;;;18.80;99.90;;;;;;5092287;28;20203;-59
2023/03/31 09:41:46;;;;;;;2.95;1.30;;;19.00;99.90;;;;;;5092443;28;20428;-59
2023/03/31 09:44:23;;;;;;;1.63;0.88;;;18.90;99.90;;;;;;5092019;28;20280;-59
2023/03/31 09:46:51;;;;;;;2.22;0.90;;;18.80;99.90;;;;;;5092367;28;20228;-59
2023/03/31 09:49:20;;;;;;;3.67;1.02;;;18.90;99.90;;;;;;5092688;28;20204;-59
2023/03/31 09:51:53;;;;;;;4.50;1.35;;;18.90;99.90;;;;;;5092846;28;20291;-59
2023/03/31 09:54:28;;;;;;;4.13;1.30;;;18.80;99.90;;;;;;5092343;28;20287;-59
2023/03/31 09:56:55;;;;;;;4.43;1.38;;;18.70;99.90;;;;;;5092493;28;20231;-60
2023/03/31 09:59:32;;;;;;;6.53;1.40;;;18.50;99.90;;;;;;5091999;28;20656;-60
2023/03/31 10:02:02;;;;;;;5.82;1.58;;;18.40;99.80;;;;;;5091633;28;20212;-60
2023/03/31 10:04:31;;;;;;;3.65;1.20;;;18.20;99.50;;;;;;5091624;28;20216;-59
2023/03/31 10:07:00;;;;;;;5.97;1.77;;;18.00;99.10;;;;;;5091572;28;20247;-60
2023/03/31 10:09:29;;;;;;;4.75;1.73;;;17.90;98.40;;;;;;5091861;28;20201;-60
2023/03/31 10:11:59;;;;;;;3.25;1.17;;;17.90;99.30;;;;;;5091645;28;20208;-59
2023/03/31 10:14:33;;;;;;;5.10;1.60;;;17.90;99.80;;;;;;5091148;28;20227;-60
2023/03/31 10:17:06;;;;;;;5.00;1.33;;;18.10;99.50;;;;;;5091592;28;20195;-60
2023/03/31 10:19:34;;;;;;;6.00;1.60;;;18.20;99.50;;;;;;5091473;28;20208;-60
2023/03/31 10:22:03;;;;;;;5.75;1.67;;;18.30;98.00;;;;;;5091036;28;20303;-60
2023/03/31 10:24:38;;;;;;;4.47;1.75;;;18.20;98.40;;;;;;5091085;28;20574;-60
2023/03/31 10:27:13;;;;;;;5.15;2.15;;;18.20;98.50;;;;;;5090931;28;20714;-60
2023/03/31 10:29:42;;;;;;;5.53;1.70;;;18.30;98.30;;;;;;5091278;28;20207;-60
2023/03/31 10:32:14;;;;;;;3.08;1.27;;;18.40;97.50;;;;;;5092376;28;20584;-60
2023/03/31 10:34:42;;;;;;;4.82;1.80;;;18.50;97.10;;;;;;5094877;28;20584;-60
2023/03/31 10:37:14;;;;;;;4.70;1.45;;;18.60;96.70;;;;;;5095431;28;20287;-59
2023/03/31 10:39:43;;;;;;;9.27;2.97;;;19.00;96.90;;;;;;5095687;28;20265;-59
2023/03/31 10:42:10;;;;;;;6.60;4.82;;;19.40;96.80;;;;;;5095297;28;20290;-59
2023/03/31 10:44:38;;;;;;;4.47;1.80;;;19.80;96.30;;;;;;5095201;28;20204;-59
2023/03/31 10:47:18;;;;;;;3.30;1.35;;;20.10;96.00;;;;;;5095197;28;20603;-59
2023/03/31 10:49:47;;;;;;;4.63;1.65;;;20.50;95.10;;;;;;5095341;28;20204;-59
2023/03/31 10:52:18;;;;;;;5.90;1.58;;;20.80;94.10;;;;;;5095587;28;20216;-59
2023/03/31 10:54:51;;;;;;;4.72;1.52;;;21.00;93.40;;;;;;5094925;28;20231;-59
2023/03/31 10:57:23;;;;;;;5.80;1.65;;;20.90;93.20;;;;;;5095192;28;20204;-59
2023/03/31 11:00:04;;;;;;;3.05;1.27;;;20.90;92.90;;;;;;5095222;28;20211;-59
2023/03/31 11:03:07;;;;;;;6.43;1.70;;;20.90;93.00;;;;;;5095139;28;20246;-59
2023/03/31 11:05:43;;;;;;;5.72;1.25;;;21.10;92.80;;;;;;5094730;28;20232;-59
2023/03/31 11:08:26;;;;;;;4.03;1.73;;;20.90;92.60;;;;;;5095138;28;20211;-59
2023/03/31 11:11:04;;;;;;;2.80;1.10;;;20.50;93.00;;;;;;5094912;28;20235;-59
2023/03/31 11:13:39;;;;;;;9.05;1.80;;;20.10;92.50;;;;;;5094881;28;20210;-59
2023/03/31 11:16:17;;;;;;;6.05;1.48;;;20.00;93.30;;;;;;5094573;28;20294;-59
2023/03/31 11:19:02;;;;;;;3.25;1.25;;;19.90;92.70;;;;;;5095181;28;20210;-59
2023/03/31 11:21:37;;;;;;;3.58;1.33;;;19.80;92.70;;;;;;5094628;28;20203;-59
2023/03/31 11:24:14;;;;;;;4.80;1.38;;;19.80;92.60;;;;;;5094232;28;20212;-59
2023/03/31 11:26:50;;;;;;;3.22;1.40;;;19.70;92.30;;;;;;5094269;28;20239;-57
2023/03/31 11:29:30;;;;;;;4.15;1.40;;;19.50;92.30;;;;;;5094757;28;20208;-58
2023/03/31 11:32:14;;;;;;;6.10;1.52;;;19.20;92.90;;;;;;5094386;28;20242;-58
2023/03/31 11:35:13;;;;;;;5.20;1.73;;;18.80;97.90;;;;;;5094218;28;20200;-58
2023/03/31 11:38:00;;;;;;;3.25;1.30;;;18.30;99.90;;;;;;5094853;28;20196;-58
2023/03/31 11:40:50;;;;;;;3.00;1.45;;;17.00;99.90;;;;;;5094497;28;20295;-58
2023/03/31 11:43:24;;;;;;;2.42;0.80;;;15.90;99.90;;;;;;5093798;28;20208;-58
2023/03/31 11:45:55;;;;;;;3.77;0.97;;;14.90;99.90;;;;;;5094139;28;20223;-59
2023/03/31 11:48:31;;;;;;;2.77;1.33;;;14.30;99.90;;;;;;5094213;28;20582;-58
2023/03/31 11:51:02;;;;;;;2.83;1.00;;;14.10;99.90;;;;;;5094037;28;20249;-58
2023/03/31 11:53:33;;;;;;;0.90;0.60;;;13.90;99.90;;;;;;5093499;28;20239;-58
2023/03/31 11:56:03;;;;;;;2.90;1.43;;;13.90;99.90;;;;;;5093755;28;20227;-58
2023/03/31 11:58:35;;;;;;;8.60;3.93;;;14.10;99.90;;;;;;5093780;28;20201;-58
2023/03/31 12:01:09;;;;;;;5.00;2.43;;;14.40;99.90;;;;;;5094010;28;20207;-58
2023/03/31 12:03:43;;;;;;;6.13;2.23;;;14.60;99.90;;;;;;5093937;28;20257;-58
2023/03/31 12:06:17;;;;;;;86.83;42.77;;;14.80;99.90;;;;;;5093499;28;20301;-58
2023/03/31 12:08:50;;;;;;;8.37;2.80;;;14.90;99.90;;;;;;5093848;28;20204;-58
2023/03/31 12:11:24;;;;;;;5.07;2.30;;;15.10;99.90;;;;;;5093607;28;20208;-58
2023/03/31 12:13:57;;;;;;;8.07;4.60;;;15.30;99.90;;;;;;5093237;28;20628;-58
2023/03/31 12:16:29;;;;;;;7.17;4.20;;;15.40;99.90;;;;;;5093573;28;20220;-58
2023/03/31 12:19:02;;;;;;;3.30;2.30;;;15.50;99.90;;;;;;5093322;28;20889;-58
2023/03/31 12:21:32;;;;;;;7.07;4.40;;;15.60;99.90;;;;;;5093757;28;20211;-58
2023/03/31 12:23:59;;;;;;;3.67;1.03;;;15.80;99.90;;;;;;5093690;28;20211;-58
2023/03/31 12:26:38;;;;;;;2.20;1.30;;;16.10;99.90;;;;;;5093857;28;20232;-58
2023/03/31 12:29:16;;;;;;;1.90;1.10;;;16.50;99.90;;;;;;5093805;28;20204;-58
2023/03/31 12:31:45;;;;;;;1.92;0.93;;;17.00;99.90;;;;;;5094700;28;20204;-58
2023/03/31 12:34:14;;;;;;;1.45;0.80;;;17.40;99.90;;;;;;5093948;28;20364;-58
2023/03/31 12:36:54;;;;;;;3.25;1.35;;;17.80;99.90;;;;;;5093194;28;20227;-58
2023/03/31 12:39:34;;;;;;;2.35;0.98;;;17.80;99.90;;;;;;5092943;28;20200;-58
2023/03/31 12:42:26;;;;;;;1.73;0.80;;;17.90;99.90;;;;;;5093881;28;20200;-60
2023/03/31 12:45:00;;;;;;;3.85;0.55;;;17.90;99.90;;;;;;5093191;28;20224;-58
2023/03/31 12:47:49;;;;;;;1.70;0.70;;;17.80;99.90;;;;;;5093302;28;20611;-57
2023/03/31 12:50:43;;;;;;;5.90;1.05;;;17.70;99.90;;;;;;5093283;28;20561;-58
2023/03/31 12:53:20;;;;;;;2.15;0.70;;;17.90;99.90;;;;;;5093737;28;20285;-58
2023/03/31 12:55:50;;;;;;;4.97;2.70;;;18.10;99.90;;;;;;5092599;28;20235;-58
2023/03/31 12:58:46;;;;;;;3.58;1.20;;;18.30;99.90;;;;;;5093605;28;20227;-58
2023/03/31 13:01:16;;;;;;;6.05;0.80;;;18.40;99.90;;;;;;5093765;28;20586;-58
2023/03/31 13:03:46;;;;;;;1.92;0.60;;;18.10;99.90;;;;;;5093151;28;20208;-58
2023/03/31 13:06:52;;;;;;;5.10;0.80;;;18.00;99.90;;;;;;5093281;28;20247;-58
2023/03/31 13:09:40;;;;;;;6.55;0.90;;;17.80;99.90;;;;;;5093693;28;20261;-58